createdAt,value
2023-05-12T00:00:38.306Z,95.70
2023-05-12T00:03:42.754Z,95.70
2023-05-12T00:10:22.100Z,95.70
2023-05-12T00:12:49.035Z,95.70
2023-05-12T00:18:39.694Z,95.70
2023-05-12T00:21:09.698Z,95.70
2023-05-12T00:24:10.604Z,95.70
2023-05-12T00:27:17.872Z,95.70
2023-05-12T00:30:43.649Z,95.70
2023-05-12T00:33:38.406Z,95.70
2023-05-12T00:36:46.111Z,95.70
2023-05-12T00:39:55.979Z,95.70
2023-05-12T00:42:22.845Z,95.70
2023-05-12T00:45:32.823Z,95.70
2023-05-12T00:48:14.931Z,95.70
2023-05-12T00:50:41.832Z,95.70
2023-05-12T00:53:09.416Z,95.70
2023-05-12T00:55:37.452Z,95.70
2023-05-12T00:58:04.318Z,95.70
2023-05-12T01:00:31.239Z,95.70
2023-05-12T01:02:58.638Z,95.70
2023-05-12T01:05:38.986Z,95.70
2023-05-12T01:08:06.342Z,95.70
2023-05-12T01:10:33.402Z,95.70
2023-05-12T01:13:00.200Z,95.70
2023-05-12T01:15:27.060Z,95.70
2023-05-12T01:17:57.546Z,95.70
2023-05-12T01:20:26.905Z,95.70
2023-05-12T01:22:54.477Z,95.70
2023-05-12T01:25:23.816Z,95.70
2023-05-12T01:27:50.777Z,95.70
2023-05-12T01:30:30.748Z,95.70
2023-05-12T01:33:04.073Z,95.70
2023-05-12T01:35:58.893Z,95.70
2023-05-12T01:38:50.069Z,95.70
2023-05-12T01:41:51.194Z,95.70
2023-05-12T01:44:36.201Z,95.70
2023-05-12T01:47:16.011Z,95.70
2023-05-12T01:53:58.034Z,95.70
2023-05-12T01:56:24.902Z,95.70
2023-05-12T01:58:51.934Z,95.70
2023-05-12T02:01:27.682Z,95.70
2023-05-12T02:03:58.486Z,95.70
2023-05-12T02:06:28.545Z,95.70
2023-05-12T02:09:13.805Z,95.70
2023-05-12T02:19:02.504Z,95.70
2023-05-12T02:28:57.761Z,95.70
2023-05-12T02:31:24.634Z,95.70
2023-05-12T02:41:13.366Z,95.70
2023-05-12T02:43:40.144Z,95.70
2023-05-12T02:46:06.985Z,95.70
2023-05-12T02:48:33.811Z,95.70
2023-05-12T02:51:19.043Z,95.70
2023-05-12T02:54:38.612Z,95.70
2023-05-12T03:04:08.730Z,95.70
2023-05-12T03:06:38.518Z,95.70
2023-05-12T03:09:05.340Z,95.70
2023-05-12T03:11:32.251Z,95.70
2023-05-12T03:13:59.045Z,95.70
2023-05-12T03:16:25.914Z,95.70
2023-05-12T03:19:23.887Z,95.70
2023-05-12T03:21:50.792Z,95.70
2023-05-12T03:24:17.631Z,95.70
2023-05-12T03:48:49.850Z,95.70
2023-05-12T03:51:16.674Z,95.70
2023-05-12T03:53:46.246Z,95.70
2023-05-12T03:56:13.458Z,95.70
2023-05-12T03:58:40.316Z,95.70
2023-05-12T04:01:07.122Z,95.70
2023-05-12T04:03:34.019Z,95.70
2023-05-12T04:06:02.712Z,95.70
2023-05-12T04:08:30.080Z,95.70
2023-05-12T04:10:59.328Z,95.70
2023-05-12T04:13:26.693Z,95.70
2023-05-12T04:15:57.739Z,95.70
2023-05-12T04:18:28.312Z,95.70
2023-05-12T04:20:58.076Z,95.70
2023-05-12T04:23:25.012Z,95.70
2023-05-12T04:25:51.836Z,95.70
2023-05-12T04:28:18.707Z,95.70
2023-05-12T04:30:45.768Z,95.70
2023-05-12T04:33:12.638Z,95.70
2023-05-12T04:35:39.458Z,95.70
2023-05-12T04:38:06.612Z,95.70
2023-05-12T04:40:35.061Z,95.70
2023-05-12T04:43:02.075Z,95.70
2023-05-12T04:45:28.858Z,95.70
2023-05-12T04:47:56.237Z,95.70
2023-05-12T04:50:23.092Z,95.70
2023-05-12T04:52:49.967Z,95.70
2023-05-12T04:55:17.109Z,95.70
2023-05-12T04:57:44.084Z,95.70
2023-05-12T05:00:11.633Z,95.70
2023-05-12T05:02:39.085Z,95.70
2023-05-12T05:05:06.512Z,95.70
2023-05-12T05:07:33.419Z,95.70
2023-05-12T05:10:00.242Z,95.70
2023-05-12T05:12:27.017Z,95.70
2023-05-12T05:14:53.814Z,95.70
2023-05-12T05:17:20.819Z,95.70
2023-05-12T05:19:57.556Z,95.70
2023-05-12T05:22:26.443Z,95.70
2023-05-12T05:24:53.348Z,95.70
2023-05-12T05:27:20.736Z,95.30
2023-05-12T05:29:47.662Z,94.30
2023-05-12T05:32:14.548Z,94.30
2023-05-12T05:34:41.442Z,92.50
2023-05-12T05:37:08.578Z,93.20
2023-05-12T05:39:35.489Z,92.90
2023-05-12T05:42:02.338Z,91.70
2023-05-12T05:44:29.123Z,91.30
2023-05-12T05:46:56.131Z,91.60
2023-05-12T05:49:23.227Z,91.30
2023-05-12T05:51:50.105Z,91.60
2023-05-12T05:54:16.959Z,92.40
2023-05-12T05:56:43.965Z,92.20
2023-05-12T05:59:11.057Z,92.30
2023-05-12T06:01:37.996Z,92.10
2023-05-12T06:04:05.069Z,92.30
2023-05-12T06:06:31.974Z,91.80
2023-05-12T06:08:58.851Z,91.30
2023-05-12T06:11:25.634Z,90.40
2023-05-12T06:13:52.651Z,90.30
2023-05-12T06:16:19.486Z,90.30
2023-05-12T06:18:46.325Z,89.50
2023-05-12T06:21:13.152Z,89.50
2023-05-12T06:23:39.940Z,89.50
2023-05-12T06:26:07.882Z,89.30
2023-05-12T06:28:34.681Z,89.50
2023-05-12T06:31:01.525Z,89.50
2023-05-12T06:33:28.393Z,89.00
2023-05-12T06:35:55.191Z,90.10
2023-05-12T06:38:22.030Z,89.90
2023-05-12T06:40:49.086Z,88.70
2023-05-12T06:43:15.993Z,88.40
2023-05-12T06:45:44.700Z,88.50
2023-05-12T06:48:11.920Z,89.00
2023-05-12T06:50:38.749Z,88.60
2023-05-12T06:53:06.394Z,88.50
2023-05-12T06:55:33.359Z,88.10
2023-05-12T06:58:00.204Z,87.90
2023-05-12T07:00:27.107Z,87.50
2023-05-12T07:02:54.043Z,87.00
2023-05-12T07:05:21.574Z,85.50
2023-05-12T07:07:48.619Z,85.90
2023-05-12T07:10:15.470Z,86.60
2023-05-12T07:12:42.345Z,87.90
2023-05-12T07:15:09.746Z,87.10
2023-05-12T07:17:36.706Z,87.50
2023-05-12T07:20:04.979Z,84.80
2023-05-12T07:22:32.715Z,85.20
2023-05-12T07:24:59.741Z,84.70
2023-05-12T07:27:26.892Z,85.40
2023-05-12T07:29:53.793Z,84.30
2023-05-12T07:32:20.714Z,86.20
2023-05-12T07:34:47.505Z,84.40
2023-05-12T07:37:14.419Z,85.90
2023-05-12T07:39:41.236Z,84.20
2023-05-12T07:42:08.854Z,85.20
2023-05-12T07:44:36.283Z,83.60
2023-05-12T07:47:03.140Z,85.00
2023-05-12T07:49:32.835Z,82.20
2023-05-12T07:51:59.618Z,81.20
2023-05-12T07:54:26.479Z,80.10
2023-05-12T07:56:53.287Z,80.10
2023-05-12T07:59:20.086Z,80.10
2023-05-12T08:01:47.034Z,78.90
2023-05-12T08:04:13.932Z,80.10
2023-05-12T08:06:40.881Z,80.60
2023-05-12T08:09:07.803Z,81.10
2023-05-12T08:11:34.603Z,79.90
2023-05-12T08:14:01.514Z,79.30
2023-05-12T08:16:28.410Z,82.60
2023-05-12T08:18:55.551Z,84.50
2023-05-12T08:21:22.356Z,82.80
2023-05-12T08:23:49.150Z,82.10
2023-05-12T08:26:15.994Z,81.00
2023-05-12T08:28:42.784Z,80.70
2023-05-12T08:31:09.639Z,81.20
2023-05-12T08:33:36.498Z,79.50
2023-05-12T08:36:03.604Z,81.70
2023-05-12T08:38:30.543Z,79.40
2023-05-12T08:41:01.096Z,78.80
2023-05-12T08:43:37.193Z,78.20
2023-05-12T08:46:05.291Z,78.40
2023-05-12T08:48:33.948Z,79.10
2023-05-12T08:51:02.695Z,75.60
2023-05-12T08:53:29.913Z,74.20
2023-05-12T08:57:09.048Z,71.60
2023-05-12T08:58:45.726Z,75.10
2023-05-12T09:01:12.757Z,71.80
2023-05-12T09:03:39.711Z,69.90
2023-05-12T09:06:07.042Z,72.10
2023-05-12T09:08:35.177Z,72.30
2023-05-12T09:11:02.557Z,71.50
2023-05-12T09:14:02.890Z,69.90
2023-05-12T09:16:32.775Z,68.40
2023-05-12T09:19:01.209Z,66.90
2023-05-12T09:21:29.295Z,65.60
2023-05-12T09:24:00.306Z,64.10
2023-05-12T09:26:28.953Z,64.70
2023-05-12T09:29:08.175Z,65.30
2023-05-12T09:31:35.580Z,63.00
2023-05-12T09:34:07.810Z,66.30
2023-05-12T09:36:35.229Z,65.80
2023-05-12T09:39:07.160Z,66.20
2023-05-12T09:41:38.334Z,66.20
2023-05-12T09:44:06.893Z,68.00
2023-05-12T09:46:33.974Z,66.80
2023-05-12T09:49:01.192Z,66.50
2023-05-12T09:51:28.324Z,66.50
2023-05-12T09:53:55.185Z,63.60
2023-05-12T09:56:22.913Z,65.10
2023-05-12T09:58:50.121Z,65.60
2023-05-12T10:01:23.989Z,63.30
2023-05-12T10:03:53.179Z,63.10
2023-05-12T10:06:28.380Z,62.80
2023-05-12T10:09:05.443Z,64.20
2023-05-12T10:11:33.504Z,63.80
2023-05-12T10:14:00.660Z,61.70
2023-05-12T10:16:31.109Z,60.90
2023-05-12T10:18:58.588Z,62.40
2023-05-12T10:21:26.197Z,63.60
2023-05-12T10:23:54.042Z,62.80
2023-05-12T10:26:21.660Z,62.30
2023-05-12T10:28:48.973Z,61.10
2023-05-12T10:31:16.144Z,59.60
2023-05-12T10:33:43.064Z,59.50
2023-05-12T10:36:19.589Z,58.20
2023-05-12T10:38:49.754Z,59.20
2023-05-12T10:41:17.150Z,58.70
2023-05-12T10:43:50.833Z,60.40
2023-05-12T10:46:19.554Z,61.40
2023-05-12T10:48:55.578Z,62.70
2023-05-12T10:51:24.913Z,61.80
2023-05-12T10:53:54.704Z,63.10
2023-05-12T10:56:37.478Z,60.90
2023-05-12T10:59:27.291Z,59.40
2023-05-12T11:02:11.855Z,59.50
2023-05-12T11:04:50.323Z,59.50
2023-05-12T11:07:22.314Z,60.00
2023-05-12T11:09:58.309Z,61.50
2023-05-12T11:12:27.953Z,58.60
2023-05-12T11:14:55.043Z,60.80
2023-05-12T11:17:22.081Z,60.60
2023-05-12T11:19:50.393Z,59.50
2023-05-12T11:22:19.942Z,58.90
2023-05-12T11:24:47.910Z,59.70
2023-05-12T11:27:17.576Z,62.80
2023-05-12T11:29:47.057Z,58.20
2023-05-12T11:32:15.763Z,60.40
2023-05-12T11:34:42.651Z,60.60
2023-05-12T11:37:09.645Z,62.20
2023-05-12T11:39:37.019Z,63.10
2023-05-12T11:42:13.008Z,61.50
2023-05-12T11:44:50.354Z,62.70
2023-05-12T11:47:19.071Z,62.90
2023-05-12T11:49:54.785Z,62.10
2023-05-12T11:52:23.794Z,59.30
2023-05-12T11:54:57.656Z,60.50
2023-05-12T11:57:31.809Z,62.50
2023-05-12T12:00:01.261Z,62.60
2023-05-12T12:02:28.655Z,61.20
2023-05-12T12:04:55.870Z,61.20
2023-05-12T12:07:49.191Z,61.00
2023-05-12T12:10:18.894Z,62.90
2023-05-12T12:12:48.570Z,63.10
2023-05-12T12:15:15.402Z,62.90
2023-05-12T12:17:42.245Z,62.30
2023-05-12T12:20:09.915Z,61.60
2023-05-12T12:22:36.817Z,62.70
2023-05-12T12:25:04.255Z,64.50
2023-05-12T12:27:31.101Z,63.40
2023-05-12T12:29:58.775Z,64.10
2023-05-12T12:32:26.122Z,64.40
2023-05-12T12:34:53.469Z,64.60
2023-05-12T12:37:20.326Z,63.50
2023-05-12T12:39:47.980Z,63.50
2023-05-12T12:42:15.586Z,65.30
2023-05-12T12:44:42.886Z,62.80
2023-05-12T12:47:09.855Z,63.70
2023-05-12T12:49:37.026Z,65.20
2023-05-12T12:52:04.321Z,62.10
2023-05-12T12:54:32.764Z,66.10
2023-05-12T12:56:59.598Z,64.80
2023-05-12T12:59:27.191Z,64.50
2023-05-12T13:01:54.131Z,64.50
2023-05-12T13:04:23.072Z,66.50
2023-05-12T13:06:50.053Z,66.30
2023-05-12T13:09:19.683Z,66.70
2023-05-12T13:11:50.320Z,65.10
2023-05-12T13:14:17.213Z,65.60
2023-05-12T13:16:44.056Z,64.20
2023-05-12T13:19:11.160Z,65.70
2023-05-12T13:21:38.098Z,65.40
2023-05-12T13:24:05.022Z,65.30
2023-05-12T13:26:31.887Z,65.50
2023-05-12T13:28:58.759Z,67.30
2023-05-12T13:31:26.028Z,66.60
2023-05-12T13:33:53.061Z,67.90
2023-05-12T13:36:19.857Z,66.90
2023-05-12T13:38:49.316Z,67.80
2023-05-12T13:41:16.143Z,68.50
2023-05-12T13:43:43.702Z,70.20
2023-05-12T13:46:10.634Z,67.80
2023-05-12T13:48:37.583Z,69.10
2023-05-12T13:51:10.307Z,68.10
2023-05-12T13:53:40.365Z,70.60
2023-05-12T13:56:10.862Z,70.00
2023-05-12T13:58:38.044Z,70.70
2023-05-12T14:01:06.676Z,70.30
2023-05-12T14:03:35.750Z,68.40
2023-05-12T14:06:03.478Z,68.90
2023-05-12T14:08:30.450Z,71.20
2023-05-12T14:11:07.193Z,70.00
2023-05-12T14:13:34.033Z,68.80
2023-05-12T14:17:01.945Z,68.20
2023-05-12T14:19:41.254Z,69.10
2023-05-12T14:22:22.368Z,68.70
2023-05-12T14:24:52.885Z,67.70
2023-05-12T14:27:19.974Z,68.80
2023-05-12T14:29:46.854Z,70.80
2023-05-12T14:32:13.798Z,68.50
2023-05-12T14:34:40.680Z,68.50
2023-05-12T14:37:07.482Z,68.10
2023-05-12T14:39:34.284Z,68.80
2023-05-12T14:42:01.075Z,68.20
2023-05-12T14:44:27.898Z,68.90
2023-05-12T14:46:54.799Z,69.60
2023-05-12T14:49:22.349Z,69.00
2023-05-12T14:51:49.694Z,68.90
2023-05-12T17:33:55.326Z,74.10
2023-05-12T17:36:22.199Z,74.50
2023-05-12T17:38:50.094Z,74.20
2023-05-12T17:41:17.031Z,74.40
2023-05-12T17:43:44.214Z,75.20
2023-05-12T17:46:11.013Z,74.20
2023-05-12T17:48:38.869Z,74.30
2023-05-12T17:51:06.483Z,75.30
2023-05-12T17:53:33.384Z,76.00
2023-05-12T17:56:00.521Z,75.50
2023-05-12T17:58:27.464Z,76.70
2023-05-12T18:00:54.504Z,76.90
2023-05-12T18:03:24.255Z,76.30
2023-05-12T18:05:52.132Z,77.00
2023-05-12T18:08:19.556Z,77.20
2023-05-12T18:10:46.816Z,76.40
2023-05-12T18:13:15.529Z,78.30
2023-05-12T18:15:42.541Z,77.20
2023-05-12T18:18:10.453Z,77.30
2023-05-12T18:20:38.263Z,78.50
2023-05-12T18:23:05.319Z,76.80
2023-05-12T18:25:32.183Z,78.10
2023-05-12T18:27:58.970Z,77.90
2023-05-12T18:30:25.924Z,79.20
2023-05-12T18:32:52.907Z,79.00
2023-05-12T18:35:19.910Z,78.70
2023-05-12T18:37:46.914Z,78.80
2023-05-12T18:40:14.220Z,78.50
2023-05-12T18:42:41.192Z,79.00
2023-05-12T18:45:08.482Z,79.60
2023-05-12T18:47:35.724Z,80.00
2023-05-12T18:50:02.798Z,80.00
2023-05-12T18:52:29.671Z,79.90
2023-05-12T18:54:56.759Z,80.00
2023-05-12T18:57:24.367Z,80.40
2023-05-12T18:59:51.382Z,81.00
2023-05-12T19:02:18.226Z,81.10
2023-05-12T19:04:49.016Z,81.20
2023-05-12T19:07:17.051Z,81.40
2023-05-12T19:09:44.255Z,81.80
2023-05-12T19:12:11.795Z,82.10
2023-05-12T19:14:39.615Z,82.80
2023-05-12T19:17:07.181Z,83.00
2023-05-12T19:19:35.174Z,83.30
2023-05-12T19:22:12.239Z,83.90
2023-05-12T19:24:40.147Z,84.60
2023-05-12T19:27:15.692Z,85.10
2023-05-12T19:30:01.748Z,85.40
2023-05-12T19:33:07.934Z,86.00
2023-05-12T19:35:36.432Z,86.40
2023-05-12T19:38:03.309Z,86.70
2023-05-12T19:40:30.580Z,87.10
2023-05-12T19:42:58.443Z,87.50
2023-05-12T19:45:28.645Z,87.70
2023-05-12T19:47:57.653Z,88.10
2023-05-12T19:50:24.870Z,88.60
2023-05-12T19:52:56.614Z,88.80
2023-05-12T19:55:23.808Z,89.30
2023-05-12T19:57:52.116Z,89.50
2023-05-12T20:00:19.673Z,89.90
2023-05-12T20:02:46.640Z,90.30
2023-05-12T20:05:13.608Z,90.40
2023-05-12T20:07:40.570Z,90.70
2023-05-12T20:10:08.072Z,90.80
2023-05-12T20:12:34.915Z,91.10
2023-05-12T20:15:01.844Z,91.40
2023-05-12T20:17:29.235Z,91.50
2023-05-12T20:19:57.436Z,91.70
2023-05-12T20:22:24.435Z,92.30
2023-05-12T20:24:53.972Z,92.60
2023-05-12T20:27:20.798Z,92.60
2023-05-12T20:29:47.622Z,92.70
2023-05-12T20:32:14.648Z,92.70
2023-05-12T20:34:41.525Z,93.10
2023-05-12T20:37:10.348Z,93.50
2023-05-12T20:39:37.322Z,93.60
2023-05-12T20:42:04.995Z,94.10
2023-05-12T20:44:31.966Z,94.40
2023-05-12T20:46:58.775Z,94.30
2023-05-12T20:49:25.700Z,94.40
2023-05-12T20:51:52.636Z,94.50
2023-05-12T20:54:19.614Z,94.60
2023-05-12T20:56:46.419Z,94.70
2023-05-12T20:59:13.710Z,95.00
2023-05-12T21:01:40.959Z,95.30
